sensor_id;sensor_type;location;lat;lon;timestamp;pressure;altitude;pressure_sealevel;temperature
45034;BMP280;30771;47.988;-4.186;2024-03-22T00:01:47;101722.28;;;9.74
45034;BMP280;30771;47.988;-4.186;2024-03-22T00:04:14;101703.75;;;9.76
45034;BMP280;30771;47.988;-4.186;2024-03-22T00:06:45;101701.09;;;9.76
45034;BMP280;30771;47.988;-4.186;2024-03-22T00:09:11;101689.09;;;9.73
45034;BMP280;30771;47.988;-4.186;2024-03-22T00:11:39;101689.94;;;9.74
45034;BMP280;30771;47.988;-4.186;2024-03-22T00:14:06;101683.31;;;9.70
45034;BMP280;30771;47.988;-4.186;2024-03-22T00:16:31;101679.22;;;9.67
45034;BMP280;30771;47.988;-4.186;2024-03-22T00:18:57;101680.53;;;9.63
45034;BMP280;30771;47.988;-4.186;2024-03-22T00:21:23;101683.63;;;9.59
45034;BMP280;30771;47.988;-4.186;2024-03-22T00:23:49;101685.94;;;9.54
45034;BMP280;30771;47.988;-4.186;2024-03-22T00:26:15;101691.34;;;9.52
45034;BMP280;30771;47.988;-4.186;2024-03-22T00:28:41;101704.84;;;9.49
45034;BMP280;30771;47.988;-4.186;2024-03-22T00:31:08;101704.50;;;9.44
45034;BMP280;30771;47.988;-4.186;2024-03-22T00:33:34;101696.06;;;9.41
45034;BMP280;30771;47.988;-4.186;2024-03-22T00:36:00;101696.03;;;9.33
45034;BMP280;30771;47.988;-4.186;2024-03-22T00:38:26;101699.50;;;9.25
45034;BMP280;30771;47.988;-4.186;2024-03-22T00:40:51;101693.09;;;9.19
45034;BMP280;30771;47.988;-4.186;2024-03-22T00:43:17;101687.84;;;9.19
45034;BMP280;30771;47.988;-4.186;2024-03-22T00:45:43;101686.84;;;9.20
45034;BMP280;30771;47.988;-4.186;2024-03-22T00:48:09;101685.19;;;9.19
45034;BMP280;30771;47.988;-4.186;2024-03-22T00:50:34;101686.03;;;9.20
45034;BMP280;30771;47.988;-4.186;2024-03-22T00:53:00;101686.47;;;9.15
45034;BMP280;30771;47.988;-4.186;2024-03-22T00:55:28;101681.22;;;9.15
45034;BMP280;30771;47.988;-4.186;2024-03-22T00:57:54;101678.75;;;9.14
45034;BMP280;30771;47.988;-4.186;2024-03-22T01:00:20;101676.97;;;9.14
45034;BMP280;30771;47.988;-4.186;2024-03-22T01:02:46;101677.94;;;9.13
45034;BMP280;30771;47.988;-4.186;2024-03-22T01:05:11;101682.72;;;9.10
45034;BMP280;30771;47.988;-4.186;2024-03-22T01:07:37;101683.00;;;9.07
45034;BMP280;30771;47.988;-4.186;2024-03-22T01:10:04;101723.88;;;9.01
45034;BMP280;30771;47.988;-4.186;2024-03-22T01:12:30;101724.56;;;9.03
45034;BMP280;30771;47.988;-4.186;2024-03-22T01:14:56;101725.44;;;9.12
45034;BMP280;30771;47.988;-4.186;2024-03-22T01:17:22;101717.41;;;9.21
45034;BMP280;30771;47.988;-4.186;2024-03-22T01:19:48;101696.41;;;9.30
45034;BMP280;30771;47.988;-4.186;2024-03-22T01:22:14;101687.38;;;9.40
45034;BMP280;30771;47.988;-4.186;2024-03-22T01:24:40;101678.34;;;9.51
45034;BMP280;30771;47.988;-4.186;2024-03-22T01:27:05;101671.97;;;9.61
45034;BMP280;30771;47.988;-4.186;2024-03-22T01:29:31;101666.72;;;9.69
45034;BMP280;30771;47.988;-4.186;2024-03-22T01:32:00;101658.19;;;9.75
45034;BMP280;30771;47.988;-4.186;2024-03-22T01:34:26;101641.59;;;9.83
45034;BMP280;30771;47.988;-4.186;2024-03-22T01:36:51;101641.06;;;9.87
45034;BMP280;30771;47.988;-4.186;2024-03-22T01:39:18;101642.25;;;9.93
45034;BMP280;30771;47.988;-4.186;2024-03-22T01:41:50;101627.59;;;9.98
45034;BMP280;30771;47.988;-4.186;2024-03-22T01:44:16;101624.94;;;10.06
45034;BMP280;30771;47.988;-4.186;2024-03-22T01:46:43;101613.41;;;10.15
45034;BMP280;30771;47.988;-4.186;2024-03-22T01:49:12;101610.91;;;10.22
45034;BMP280;30771;47.988;-4.186;2024-03-22T01:51:41;101597.44;;;10.25
45034;BMP280;30771;47.988;-4.186;2024-03-22T01:54:09;101603.97;;;10.29
45034;BMP280;30771;47.988;-4.186;2024-03-22T01:56:38;101588.03;;;10.31
45034;BMP280;30771;47.988;-4.186;2024-03-22T01:59:05;101584.09;;;10.35
45034;BMP280;30771;47.988;-4.186;2024-03-22T02:01:32;101574.69;;;10.40
45034;BMP280;30771;47.988;-4.186;2024-03-22T02:03:58;101579.94;;;10.40
45034;BMP280;30771;47.988;-4.186;2024-03-22T02:06:24;101574.50;;;10.42
45034;BMP280;30771;47.988;-4.186;2024-03-22T02:08:49;101569.25;;;10.42
45034;BMP280;30771;47.988;-4.186;2024-03-22T02:11:15;101565.78;;;10.41
45034;BMP280;30771;47.988;-4.186;2024-03-22T02:13:41;101565.63;;;10.43
45034;BMP280;30771;47.988;-4.186;2024-03-22T02:16:08;101563.97;;;10.42
45034;BMP280;30771;47.988;-4.186;2024-03-22T02:18:34;101551.31;;;10.37
45034;BMP280;30771;47.988;-4.186;2024-03-22T02:21:00;101542.75;;;10.35
45034;BMP280;30771;47.988;-4.186;2024-03-22T02:23:37;101539.47;;;10.33
45034;BMP280;30771;47.988;-4.186;2024-03-22T02:26:04;101526.97;;;10.35
45034;BMP280;30771;47.988;-4.186;2024-03-22T02:28:31;101535.50;;;10.37
45034;BMP280;30771;47.988;-4.186;2024-03-22T02:30:58;101538.63;;;10.41
45034;BMP280;30771;47.988;-4.186;2024-03-22T02:33:24;101527.94;;;10.42
45034;BMP280;30771;47.988;-4.186;2024-03-22T02:35:50;101535.63;;;10.44
45034;BMP280;30771;47.988;-4.186;2024-03-22T02:38:16;101533.31;;;10.49
45034;BMP280;30771;47.988;-4.186;2024-03-22T02:40:46;101515.53;;;10.51
45034;BMP280;30771;47.988;-4.186;2024-03-22T02:43:12;101531.16;;;10.52
45034;BMP280;30771;47.988;-4.186;2024-03-22T02:45:38;101525.53;;;10.55
45034;BMP280;30771;47.988;-4.186;2024-03-22T02:48:05;101529.50;;;10.59
45034;BMP280;30771;47.988;-4.186;2024-03-22T02:50:34;101537.84;;;10.63
45034;BMP280;30771;47.988;-4.186;2024-03-22T02:53:00;101537.69;;;10.64
45034;BMP280;30771;47.988;-4.186;2024-03-22T02:55:26;101537.50;;;10.66
45034;BMP280;30771;47.988;-4.186;2024-03-22T02:57:52;101540.59;;;10.69
45034;BMP280;30771;47.988;-4.186;2024-03-22T03:00:18;101533.34;;;10.71
45034;BMP280;30771;47.988;-4.186;2024-03-22T03:02:45;101530.41;;;10.74
45034;BMP280;30771;47.988;-4.186;2024-03-22T03:05:11;101523.75;;;10.78
45034;BMP280;30771;47.988;-4.186;2024-03-22T03:07:37;101515.03;;;10.78
45034;BMP280;30771;47.988;-4.186;2024-03-22T03:10:03;101504.34;;;10.79
45034;BMP280;30771;47.988;-4.186;2024-03-22T03:12:28;101495.28;;;10.82
45034;BMP280;30771;47.988;-4.186;2024-03-22T03:14:54;101489.00;;;10.83
45034;BMP280;30771;47.988;-4.186;2024-03-22T03:17:20;101477.63;;;10.82
45034;BMP280;30771;47.988;-4.186;2024-03-22T03:19:46;101481.56;;;10.86
45034;BMP280;30771;47.988;-4.186;2024-03-22T03:22:11;101477.56;;;10.90
45034;BMP280;30771;47.988;-4.186;2024-03-22T03:24:37;101469.44;;;10.92
45034;BMP280;30771;47.988;-4.186;2024-03-22T03:27:03;101465.00;;;10.92
45034;BMP280;30771;47.988;-4.186;2024-03-22T03:29:28;101466.03;;;10.91
45034;BMP280;30771;47.988;-4.186;2024-03-22T03:31:54;101459.72;;;10.92
45034;BMP280;30771;47.988;-4.186;2024-03-22T03:34:20;101453.50;;;10.93
45034;BMP280;30771;47.988;-4.186;2024-03-22T03:36:46;101442.59;;;10.96
45034;BMP280;30771;47.988;-4.186;2024-03-22T03:39:12;101427.59;;;10.97
45034;BMP280;30771;47.988;-4.186;2024-03-22T03:41:37;101425.59;;;10.99
45034;BMP280;30771;47.988;-4.186;2024-03-22T03:44:03;101422.31;;;10.97
45034;BMP280;30771;47.988;-4.186;2024-03-22T03:46:29;101432.72;;;10.98
45034;BMP280;30771;47.988;-4.186;2024-03-22T03:48:55;101428.59;;;10.96
45034;BMP280;30771;47.988;-4.186;2024-03-22T03:51:20;101428.75;;;10.94
45034;BMP280;30771;47.988;-4.186;2024-03-22T03:53:46;101430.59;;;10.94
45034;BMP280;30771;47.988;-4.186;2024-03-22T03:56:12;101423.34;;;10.96
45034;BMP280;30771;47.988;-4.186;2024-03-22T03:58:37;101417.41;;;10.94
45034;BMP280;30771;47.988;-4.186;2024-03-22T04:01:07;101413.97;;;10.93
45034;BMP280;30771;47.988;-4.186;2024-03-22T04:03:33;101401.94;;;10.91
45034;BMP280;30771;47.988;-4.186;2024-03-22T04:05:59;101396.06;;;10.89
45034;BMP280;30771;47.988;-4.186;2024-03-22T04:08:26;101398.56;;;10.82
45034;BMP280;30771;47.988;-4.186;2024-03-22T04:10:52;101391.69;;;10.81
45034;BMP280;30771;47.988;-4.186;2024-03-22T04:13:18;101390.50;;;10.84
45034;BMP280;30771;47.988;-4.186;2024-03-22T04:15:44;101384.06;;;10.86
45034;BMP280;30771;47.988;-4.186;2024-03-22T04:18:10;101383.03;;;10.87
45034;BMP280;30771;47.988;-4.186;2024-03-22T04:20:35;101382.88;;;10.89
45034;BMP280;30771;47.988;-4.186;2024-03-22T04:23:01;101376.97;;;10.87
45034;BMP280;30771;47.988;-4.186;2024-03-22T04:25:27;101378.13;;;10.84
45034;BMP280;30771;47.988;-4.186;2024-03-22T04:27:53;101378.31;;;10.83
45034;BMP280;30771;47.988;-4.186;2024-03-22T04:30:18;101386.41;;;10.81
45034;BMP280;30771;47.988;-4.186;2024-03-22T04:32:46;101389.88;;;10.82
45034;BMP280;30771;47.988;-4.186;2024-03-22T04:35:12;101395.75;;;10.84
45034;BMP280;30771;47.988;-4.186;2024-03-22T04:37:38;101385.69;;;10.87
45034;BMP280;30771;47.988;-4.186;2024-03-22T04:40:04;101391.63;;;10.89
45034;BMP280;30771;47.988;-4.186;2024-03-22T04:42:30;101394.41;;;10.88
45034;BMP280;30771;47.988;-4.186;2024-03-22T04:44:56;101382.88;;;10.89
45034;BMP280;30771;47.988;-4.186;2024-03-22T04:47:23;101379.44;;;10.88
45034;BMP280;30771;47.988;-4.186;2024-03-22T04:49:49;101378.78;;;10.86
45034;BMP280;30771;47.988;-4.186;2024-03-22T04:52:14;101380.88;;;10.91
45034;BMP280;30771;47.988;-4.186;2024-03-22T04:54:40;101383.31;;;10.92
45034;BMP280;30771;47.988;-4.186;2024-03-22T04:57:06;101395.19;;;10.96
45034;BMP280;30771;47.988;-4.186;2024-03-22T04:59:32;101400.59;;;10.95
45034;BMP280;30771;47.988;-4.186;2024-03-22T05:01:57;101398.78;;;10.95
45034;BMP280;30771;47.988;-4.186;2024-03-22T05:04:23;101395.19;;;10.96
45034;BMP280;30771;47.988;-4.186;2024-03-22T05:06:49;101390.53;;;10.98
45034;BMP280;30771;47.988;-4.186;2024-03-22T05:09:15;101387.91;;;10.98
45034;BMP280;30771;47.988;-4.186;2024-03-22T05:11:41;101387.34;;;11.03
45034;BMP280;30771;47.988;-4.186;2024-03-22T05:14:07;101376.63;;;11.04
45034;BMP280;30771;47.988;-4.186;2024-03-22T05:16:33;101384.38;;;11.06
45034;BMP280;30771;47.988;-4.186;2024-03-22T05:18:58;101370.97;;;11.07
45034;BMP280;30771;47.988;-4.186;2024-03-22T05:21:24;101368.97;;;11.09
45034;BMP280;30771;47.988;-4.186;2024-03-22T05:23:50;101372.44;;;11.10
45034;BMP280;30771;47.988;-4.186;2024-03-22T05:26:15;101365.38;;;11.10
45034;BMP280;30771;47.988;-4.186;2024-03-22T05:28:41;101362.09;;;11.08
45034;BMP280;30771;47.988;-4.186;2024-03-22T05:31:07;101351.34;;;11.10
45034;BMP280;30771;47.988;-4.186;2024-03-22T05:33:33;101354.81;;;11.10
45034;BMP280;30771;47.988;-4.186;2024-03-22T05:35:59;101345.44;;;11.08
45034;BMP280;30771;47.988;-4.186;2024-03-22T05:38:25;101359.28;;;11.10
45034;BMP280;30771;47.988;-4.186;2024-03-22T05:40:50;101364.28;;;11.05
45034;BMP280;30771;47.988;-4.186;2024-03-22T05:43:16;101372.19;;;11.05
45034;BMP280;30771;47.988;-4.186;2024-03-22T05:45:42;101369.34;;;11.06
45034;BMP280;30771;47.988;-4.186;2024-03-22T05:48:08;101379.53;;;11.09
45034;BMP280;30771;47.988;-4.186;2024-03-22T05:50:33;101374.63;;;11.06
45034;BMP280;30771;47.988;-4.186;2024-03-22T05:52:59;101366.72;;;11.06
45034;BMP280;30771;47.988;-4.186;2024-03-22T05:55:25;101359.59;;;11.07
45034;BMP280;30771;47.988;-4.186;2024-03-22T05:57:53;101365.56;;;11.09
45034;BMP280;30771;47.988;-4.186;2024-03-22T06:00:18;101362.72;;;11.10
45034;BMP280;30771;47.988;-4.186;2024-03-22T06:02:44;101367.81;;;11.12
45034;BMP280;30771;47.988;-4.186;2024-03-22T06:05:10;101371.47;;;11.11
45034;BMP280;30771;47.988;-4.186;2024-03-22T06:07:36;101370.44;;;11.12
45034;BMP280;30771;47.988;-4.186;2024-03-22T06:10:08;101368.47;;;11.14
45034;BMP280;30771;47.988;-4.186;2024-03-22T06:12:35;101368.56;;;11.06
45034;BMP280;30771;47.988;-4.186;2024-03-22T06:15:02;101375.66;;;11.05
45034;BMP280;30771;47.988;-4.186;2024-03-22T06:17:32;101366.72;;;11.06
45034;BMP280;30771;47.988;-4.186;2024-03-22T06:19:59;101383.34;;;11.07
45034;BMP280;30771;47.988;-4.186;2024-03-22T06:22:26;101383.19;;;11.08
45034;BMP280;30771;47.988;-4.186;2024-03-22T06:24:52;101382.81;;;11.11
45034;BMP280;30771;47.988;-4.186;2024-03-22T06:27:19;101391.09;;;11.08
45034;BMP280;30771;47.988;-4.186;2024-03-22T06:29:45;101393.88;;;11.07
45034;BMP280;30771;47.988;-4.186;2024-03-22T06:32:10;101398.16;;;11.08
45034;BMP280;30771;47.988;-4.186;2024-03-22T06:34:36;101398.53;;;11.05
45034;BMP280;30771;47.988;-4.186;2024-03-22T06:37:02;101409.91;;;11.05
45034;BMP280;30771;47.988;-4.186;2024-03-22T06:39:28;101418.44;;;11.07
45034;BMP280;30771;47.988;-4.186;2024-03-22T06:41:53;101414.44;;;11.11
45034;BMP280;30771;47.988;-4.186;2024-03-22T06:44:19;101408.78;;;11.14
45034;BMP280;30771;47.988;-4.186;2024-03-22T06:46:45;101425.09;;;11.18
45034;BMP280;30771;47.988;-4.186;2024-03-22T06:49:11;101435.09;;;11.23
45034;BMP280;30771;47.988;-4.186;2024-03-22T06:51:36;101441.84;;;11.25
45034;BMP280;30771;47.988;-4.186;2024-03-22T06:54:02;101451.22;;;11.28
45034;BMP280;30771;47.988;-4.186;2024-03-22T06:56:28;101454.94;;;11.33
45034;BMP280;30771;47.988;-4.186;2024-03-22T06:58:54;101453.78;;;11.36
45034;BMP280;30771;47.988;-4.186;2024-03-22T07:01:19;101452.22;;;11.41
45034;BMP280;30771;47.988;-4.186;2024-03-22T07:03:46;101466.06;;;11.43
45034;BMP280;30771;47.988;-4.186;2024-03-22T07:06:14;101462.38;;;11.44
45034;BMP280;30771;47.988;-4.186;2024-03-22T07:08:40;101468.56;;;11.51
45034;BMP280;30771;47.988;-4.186;2024-03-22T07:11:06;101477.78;;;11.55
45034;BMP280;30771;47.988;-4.186;2024-03-22T07:13:32;101480.88;;;11.59
45034;BMP280;30771;47.988;-4.186;2024-03-22T07:15:58;101483.78;;;11.64
45034;BMP280;30771;47.988;-4.186;2024-03-22T07:18:24;101499.69;;;11.70
45034;BMP280;30771;47.988;-4.186;2024-03-22T07:20:49;101504.97;;;11.70
45034;BMP280;30771;47.988;-4.186;2024-03-22T07:23:15;101510.53;;;11.75
45034;BMP280;30771;47.988;-4.186;2024-03-22T07:25:41;101517.13;;;11.79
45034;BMP280;30771;47.988;-4.186;2024-03-22T07:28:09;101522.47;;;11.86
45034;BMP280;30771;47.988;-4.186;2024-03-22T07:30:34;101525.38;;;11.91
45034;BMP280;30771;47.988;-4.186;2024-03-22T07:33:01;101528.91;;;11.98
45034;BMP280;30771;47.988;-4.186;2024-03-22T07:35:27;101529.19;;;12.03
45034;BMP280;30771;47.988;-4.186;2024-03-22T07:37:53;101541.69;;;12.09
45034;BMP280;30771;47.988;-4.186;2024-03-22T07:40:18;101541.28;;;12.12
45034;BMP280;30771;47.988;-4.186;2024-03-22T07:42:45;101553.75;;;12.18
45034;BMP280;30771;47.988;-4.186;2024-03-22T07:45:11;101558.06;;;12.19
45034;BMP280;30771;47.988;-4.186;2024-03-22T07:47:37;101565.97;;;12.19
45034;BMP280;30771;47.988;-4.186;2024-03-22T07:50:04;101584.47;;;12.19
45034;BMP280;30771;47.988;-4.186;2024-03-22T07:52:30;101587.75;;;12.21
45034;BMP280;30771;47.988;-4.186;2024-03-22T07:54:56;101596.66;;;12.20
45034;BMP280;30771;47.988;-4.186;2024-03-22T07:57:21;101608.31;;;12.26
45034;BMP280;30771;47.988;-4.186;2024-03-22T07:59:48;101617.88;;;12.27
45034;BMP280;30771;47.988;-4.186;2024-03-22T08:02:14;101628.59;;;12.25
45034;BMP280;30771;47.988;-4.186;2024-03-22T08:04:40;101639.00;;;12.27
45034;BMP280;30771;47.988;-4.186;2024-03-22T08:07:06;101651.84;;;12.30
45034;BMP280;30771;47.988;-4.186;2024-03-22T08:09:31;101667.97;;;12.35
45034;BMP280;30771;47.988;-4.186;2024-03-22T08:11:57;101671.88;;;12.39
45034;BMP280;30771;47.988;-4.186;2024-03-22T08:14:23;101695.13;;;12.43
45034;BMP280;30771;47.988;-4.186;2024-03-22T08:16:49;101700.13;;;12.53
45034;BMP280;30771;47.988;-4.186;2024-03-22T08:19:14;101713.59;;;12.72
45034;BMP280;30771;47.988;-4.186;2024-03-22T08:21:41;101731.63;;;12.83
45034;BMP280;30771;47.988;-4.186;2024-03-22T08:24:06;101756.72;;;12.87
45034;BMP280;30771;47.988;-4.186;2024-03-22T08:26:32;101777.22;;;12.85
45034;BMP280;30771;47.988;-4.186;2024-03-22T08:28:58;101801.25;;;12.90
45034;BMP280;30771;47.988;-4.186;2024-03-22T08:31:24;101831.09;;;12.99
45034;BMP280;30771;47.988;-4.186;2024-03-22T08:33:52;101855.16;;;13.04
45034;BMP280;30771;47.988;-4.186;2024-03-22T08:36:18;101874.41;;;13.12
45034;BMP280;30771;47.988;-4.186;2024-03-22T08:38:44;101893.84;;;13.19
45034;BMP280;30771;47.988;-4.186;2024-03-22T08:41:10;101935.72;;;13.16
45034;BMP280;30771;47.988;-4.186;2024-03-22T08:43:36;101957.78;;;13.23
45034;BMP280;30771;47.988;-4.186;2024-03-22T08:46:02;101984.22;;;13.23
45034;BMP280;30771;47.988;-4.186;2024-03-22T08:48:29;102020.75;;;13.27
45034;BMP280;30771;47.988;-4.186;2024-03-22T08:50:54;102041.03;;;13.35
45034;BMP280;30771;47.988;-4.186;2024-03-22T08:53:20;102063.19;;;13.49
45034;BMP280;30771;47.988;-4.186;2024-03-22T08:55:47;102074.72;;;13.56
45034;BMP280;30771;47.988;-4.186;2024-03-22T08:58:14;102090.69;;;13.62
45034;BMP280;30771;47.988;-4.186;2024-03-22T09:00:44;102118.59;;;13.50
45034;BMP280;30771;47.988;-4.186;2024-03-22T09:03:10;102137.13;;;13.50
45034;BMP280;30771;47.988;-4.186;2024-03-22T09:05:36;102143.41;;;13.49
45034;BMP280;30771;47.988;-4.186;2024-03-22T09:08:03;102141.16;;;13.46
45034;BMP280;30771;47.988;-4.186;2024-03-22T09:10:29;102154.31;;;13.54
45034;BMP280;30771;47.988;-4.186;2024-03-22T09:12:55;102158.81;;;13.68
45034;BMP280;30771;47.988;-4.186;2024-03-22T09:15:21;102153.38;;;13.84
45034;BMP280;30771;47.988;-4.186;2024-03-22T09:17:47;102167.63;;;13.98
45034;BMP280;30771;47.988;-4.186;2024-03-22T09:20:13;102183.88;;;13.95
45034;BMP280;30771;47.988;-4.186;2024-03-22T09:22:39;102196.94;;;13.96
45034;BMP280;30771;47.988;-4.186;2024-03-22T09:25:06;102219.69;;;13.91
45034;BMP280;30771;47.988;-4.186;2024-03-22T09:27:32;102222.88;;;14.01
45034;BMP280;30771;47.988;-4.186;2024-03-22T09:29:58;102219.25;;;14.16
45034;BMP280;30771;47.988;-4.186;2024-03-22T09:32:24;102237.69;;;14.10
45034;BMP280;30771;47.988;-4.186;2024-03-22T09:34:52;102250.56;;;14.13
45034;BMP280;30771;47.988;-4.186;2024-03-22T09:37:18;102265.81;;;14.11
45034;BMP280;30771;47.988;-4.186;2024-03-22T09:39:44;102273.81;;;14.25
45034;BMP280;30771;47.988;-4.186;2024-03-22T09:42:13;102289.63;;;14.19
45034;BMP280;30771;47.988;-4.186;2024-03-22T09:44:44;102289.44;;;14.20
45034;BMP280;30771;47.988;-4.186;2024-03-22T09:47:17;102298.59;;;14.32
45034;BMP280;30771;47.988;-4.186;2024-03-22T09:49:43;102312.13;;;14.37
45034;BMP280;30771;47.988;-4.186;2024-03-22T09:52:15;102309.09;;;14.40
45034;BMP280;30771;47.988;-4.186;2024-03-22T09:54:45;102308.47;;;14.53
45034;BMP280;30771;47.988;-4.186;2024-03-22T09:57:14;102317.28;;;14.54
45034;BMP280;30771;47.988;-4.186;2024-03-22T09:59:45;102322.72;;;14.52
45034;BMP280;30771;47.988;-4.186;2024-03-22T10:02:12;102324.94;;;14.63
45034;BMP280;30771;47.988;-4.186;2024-03-22T10:04:41;102338.66;;;14.67
45034;BMP280;30771;47.988;-4.186;2024-03-22T10:07:07;102355.88;;;14.71
45034;BMP280;30771;47.988;-4.186;2024-03-22T10:09:36;102361.31;;;14.69
45034;BMP280;30771;47.988;-4.186;2024-03-22T10:12:03;102354.69;;;14.73
45034;BMP280;30771;47.988;-4.186;2024-03-22T10:14:29;102358.31;;;14.87
45034;BMP280;30771;47.988;-4.186;2024-03-22T10:16:56;102360.69;;;14.82
45034;BMP280;30771;47.988;-4.186;2024-03-22T10:19:23;102366.47;;;15.00
45034;BMP280;30771;47.988;-4.186;2024-03-22T10:22:07;102366.34;;;15.22
45034;BMP280;30771;47.988;-4.186;2024-03-22T10:24:32;102368.53;;;15.33
45034;BMP280;30771;47.988;-4.186;2024-03-22T10:26:59;102382.28;;;15.22
45034;BMP280;30771;47.988;-4.186;2024-03-22T10:29:25;102374.78;;;15.11
45034;BMP280;30771;47.988;-4.186;2024-03-22T10:31:55;102375.16;;;15.08
45034;BMP280;30771;47.988;-4.186;2024-03-22T10:34:21;102374.31;;;15.22
45034;BMP280;30771;47.988;-4.186;2024-03-22T10:36:49;102371.75;;;15.29
45034;BMP280;30771;47.988;-4.186;2024-03-22T10:39:18;102370.88;;;15.43
45034;BMP280;30771;47.988;-4.186;2024-03-22T10:41:48;102361.91;;;15.44
45034;BMP280;30771;47.988;-4.186;2024-03-22T10:44:14;102365.28;;;15.38
45034;BMP280;30771;47.988;-4.186;2024-03-22T10:46:49;102353.34;;;15.27
45034;BMP280;30771;47.988;-4.186;2024-03-22T10:49:16;102347.53;;;15.38
45034;BMP280;30771;47.988;-4.186;2024-03-22T10:51:44;102339.41;;;15.40
45034;BMP280;30771;47.988;-4.186;2024-03-22T10:54:16;102327.50;;;15.36
45034;BMP280;30771;47.988;-4.186;2024-03-22T10:56:44;102315.03;;;15.36
45034;BMP280;30771;47.988;-4.186;2024-03-22T10:59:18;102312.75;;;15.33
45034;BMP280;30771;47.988;-4.186;2024-03-22T11:01:49;102302.66;;;15.22
45034;BMP280;30771;47.988;-4.186;2024-03-22T11:04:19;102301.31;;;15.12
45034;BMP280;30771;47.988;-4.186;2024-03-22T11:06:49;102291.00;;;15.02
45034;BMP280;30771;47.988;-4.186;2024-03-22T11:09:21;102274.78;;;14.97
45034;BMP280;30771;47.988;-4.186;2024-03-22T11:11:48;102264.94;;;14.91
45034;BMP280;30771;47.988;-4.186;2024-03-22T11:14:14;102248.47;;;14.81
45034;BMP280;30771;47.988;-4.186;2024-03-22T11:16:47;102243.28;;;14.73
45034;BMP280;30771;47.988;-4.186;2024-03-22T11:19:13;102227.66;;;14.64
45034;BMP280;30771;47.988;-4.186;2024-03-22T11:21:39;102201.13;;;14.64
45034;BMP280;30771;47.988;-4.186;2024-03-22T11:24:05;102182.31;;;14.59
45034;BMP280;30771;47.988;-4.186;2024-03-22T11:26:34;102172.06;;;14.56
45034;BMP280;30771;47.988;-4.186;2024-03-22T11:29:00;102160.19;;;14.52
45034;BMP280;30771;47.988;-4.186;2024-03-22T11:31:27;102144.66;;;14.49
45034;BMP280;30771;47.988;-4.186;2024-03-22T11:33:53;102133.03;;;14.50
45034;BMP280;30771;47.988;-4.186;2024-03-22T11:36:19;102123.44;;;14.49
45034;BMP280;30771;47.988;-4.186;2024-03-22T11:38:45;102100.78;;;14.46
45034;BMP280;30771;47.988;-4.186;2024-03-22T11:41:12;102099.34;;;14.44
45034;BMP280;30771;47.988;-4.186;2024-03-22T11:43:42;102079.31;;;14.41
45034;BMP280;30771;47.988;-4.186;2024-03-22T11:46:08;102062.16;;;14.37
45034;BMP280;30771;47.988;-4.186;2024-03-22T11:48:41;102045.47;;;14.43
45034;BMP280;30771;47.988;-4.186;2024-03-22T11:51:08;102026.78;;;14.51
45034;BMP280;30771;47.988;-4.186;2024-03-22T11:53:37;102012.41;;;14.60
45034;BMP280;30771;47.988;-4.186;2024-03-22T11:56:04;101993.75;;;14.68
45034;BMP280;30771;47.988;-4.186;2024-03-22T11:58:30;101994.34;;;14.70
45034;BMP280;30771;47.988;-4.186;2024-03-22T12:00:57;101980.72;;;14.73
45034;BMP280;30771;47.988;-4.186;2024-03-22T12:03:23;101972.84;;;14.86
45034;BMP280;30771;47.988;-4.186;2024-03-22T12:05:49;101966.41;;;14.95
45034;BMP280;30771;47.988;-4.186;2024-03-22T12:08:17;101966.00;;;14.98
45034;BMP280;30771;47.988;-4.186;2024-03-22T12:10:43;101966.66;;;15.00
45034;BMP280;30771;47.988;-4.186;2024-03-22T12:13:09;101962.19;;;15.07
45034;BMP280;30771;47.988;-4.186;2024-03-22T12:15:35;101952.69;;;15.19
45034;BMP280;30771;47.988;-4.186;2024-03-22T12:18:02;101961.22;;;15.15
45034;BMP280;30771;47.988;-4.186;2024-03-22T12:20:28;101963.44;;;15.11
45034;BMP280;30771;47.988;-4.186;2024-03-22T12:22:55;101968.75;;;15.11
45034;BMP280;30771;47.988;-4.186;2024-03-22T12:25:21;101967.03;;;15.04
45034;BMP280;30771;47.988;-4.186;2024-03-22T12:27:47;101960.31;;;15.01
45034;BMP280;30771;47.988;-4.186;2024-03-22T12:30:13;101946.63;;;14.98
45034;BMP280;30771;47.988;-4.186;2024-03-22T12:32:39;101943.34;;;14.96
45034;BMP280;30771;47.988;-4.186;2024-03-22T12:35:05;101924.34;;;14.99
45034;BMP280;30771;47.988;-4.186;2024-03-22T12:37:31;101910.75;;;15.08
45034;BMP280;30771;47.988;-4.186;2024-03-22T12:39:56;101884.47;;;15.20
45034;BMP280;30771;47.988;-4.186;2024-03-22T12:42:22;101881.06;;;15.32
45034;BMP280;30771;47.988;-4.186;2024-03-22T12:44:48;101879.06;;;15.41
45034;BMP280;30771;47.988;-4.186;2024-03-22T12:47:14;101855.00;;;15.55
45034;BMP280;30771;47.988;-4.186;2024-03-22T12:49:40;101861.59;;;15.73
45034;BMP280;30771;47.988;-4.186;2024-03-22T12:52:06;101868.34;;;15.82
45034;BMP280;30771;47.988;-4.186;2024-03-22T12:54:32;101876.06;;;15.70
45034;BMP280;30771;47.988;-4.186;2024-03-22T12:56:58;101887.94;;;15.68
45034;BMP280;30771;47.988;-4.186;2024-03-22T12:59:24;101900.16;;;15.55
45034;BMP280;30771;47.988;-4.186;2024-03-22T13:01:49;101898.47;;;15.48
45034;BMP280;30771;47.988;-4.186;2024-03-22T13:04:15;101907.88;;;15.44
45034;BMP280;30771;47.988;-4.186;2024-03-22T13:06:43;101906.22;;;15.43
45034;BMP280;30771;47.988;-4.186;2024-03-22T13:09:09;101898.69;;;15.40
45034;BMP280;30771;47.988;-4.186;2024-03-22T13:11:35;101903.75;;;15.35
45034;BMP280;30771;47.988;-4.186;2024-03-22T13:14:01;101902.88;;;15.28
45034;BMP280;30771;47.988;-4.186;2024-03-22T13:16:27;101887.78;;;15.28
45034;BMP280;30771;47.988;-4.186;2024-03-22T13:18:53;101873.28;;;15.24
45034;BMP280;30771;47.988;-4.186;2024-03-22T13:21:19;101874.25;;;15.17
45034;BMP280;30771;47.988;-4.186;2024-03-22T13:23:45;101874.63;;;15.07
45034;BMP280;30771;47.988;-4.186;2024-03-22T13:26:10;101871.31;;;14.99
45034;BMP280;30771;47.988;-4.186;2024-03-22T13:28:36;101859.47;;;14.95
45034;BMP280;30771;47.988;-4.186;2024-03-22T13:31:03;101843.91;;;14.92
45034;BMP280;30771;47.988;-4.186;2024-03-22T13:33:33;101828.41;;;14.89
45034;BMP280;30771;47.988;-4.186;2024-03-22T13:35:59;101814.56;;;14.93
45034;BMP280;30771;47.988;-4.186;2024-03-22T13:38:25;101796.75;;;14.87
45034;BMP280;30771;47.988;-4.186;2024-03-22T13:40:56;101776.53;;;14.86
45034;BMP280;30771;47.988;-4.186;2024-03-22T13:43:23;101750.69;;;14.88